Val-David, Canada
Current Conditions -  °F | °C
As of 2:00 AM on Monday 24 Nov 2014 (Local Time) from CYMX Reporting Station
Haze Haze  
Wind Chill: 30°   Ceiling: 400
Heat Index: 36°   Visibility: 1.5mi
Dew Point: 34°   Wind: 7mph
Humidity: 93%   Direction: 40°NE
Pressure: 29.82"   Gusts: NA
Location:  46.03°N, 74.2°W
Report Text: CYMX 240700Z 04006KT 1 1/2SM BR SCT002 BKN004 BKN065 OVC090 02/01 A2982 RMK FG3SF1SF1SC2AC1 PRESFR SLP101
Loading
Personal Weather Stations






























Interactive Weather Map New forecast layout! Learn more

10-Day Weather Forecast

Advertisements
Track Severe Weather on mobile